sensor_id;sensor_type;location;lat;lon;timestamp;pressure;altitude;pressure_sealevel;temperature;humidity
51986;BME280;38002;53.296;6.600;2023-02-22T00:03:50;101820.91;;;8.50;94.56
51986;BME280;38002;53.296;6.600;2023-02-22T00:08:51;101809.63;;;8.45;94.81
51986;BME280;38002;53.296;6.600;2023-02-22T00:13:52;101813.03;;;8.47;94.93
51986;BME280;38002;53.296;6.600;2023-02-22T00:18:56;101811.31;;;8.46;94.94
51986;BME280;38002;53.296;6.600;2023-02-22T00:23:56;101814.19;;;8.45;94.51
51986;BME280;38002;53.296;6.600;2023-02-22T00:28:57;101807.13;;;8.42;94.33
51986;BME280;38002;53.296;6.600;2023-02-22T00:33:57;101800.03;;;8.41;94.96
51986;BME280;38002;53.296;6.600;2023-02-22T00:38:58;101800.84;;;8.42;94.73
51986;BME280;38002;53.296;6.600;2023-02-22T00:43:58;101790.00;;;8.42;94.74
51986;BME280;38002;53.296;6.600;2023-02-22T00:48:59;101790.00;;;8.42;94.88
51986;BME280;38002;53.296;6.600;2023-02-22T00:53:59;101788.53;;;8.38;94.47
51986;BME280;38002;53.296;6.600;2023-02-22T00:59:00;101790.38;;;8.37;94.89
51986;BME280;38002;53.296;6.600;2023-02-22T01:04:01;101783.28;;;8.36;95.31
51986;BME280;38002;53.296;6.600;2023-02-22T01:09:02;101784.50;;;8.32;95.76
51986;BME280;38002;53.296;6.600;2023-02-22T01:14:03;101773.78;;;8.31;94.79
51986;BME280;38002;53.296;6.600;2023-02-22T01:19:03;101763.91;;;8.30;95.20
51986;BME280;38002;53.296;6.600;2023-02-22T01:24:05;101761.22;;;8.30;95.51
51986;BME280;38002;53.296;6.600;2023-02-22T01:29:06;101756.88;;;8.27;95.50
51986;BME280;38002;53.296;6.600;2023-02-22T01:34:07;101748.75;;;8.27;95.99
51986;BME280;38002;53.296;6.600;2023-02-22T01:39:08;101746.41;;;8.23;95.06
51986;BME280;38002;53.296;6.600;2023-02-22T01:44:36;101740.63;;;8.27;94.82
51986;BME280;38002;53.296;6.600;2023-02-22T01:49:43;101747.88;;;8.27;95.80
51986;BME280;38002;53.296;6.600;2023-02-22T01:54:55;101736.44;;;8.23;95.37
51986;BME280;38002;53.296;6.600;2023-02-22T02:00:01;101737.69;;;8.19;95.06
51986;BME280;38002;53.296;6.600;2023-02-22T02:05:09;101740.63;;;8.16;95.33
51986;BME280;38002;53.296;6.600;2023-02-22T02:10:12;101744.56;;;8.12;95.69
51986;BME280;38002;53.296;6.600;2023-02-22T02:15:22;101734.75;;;8.11;94.92
51986;BME280;38002;53.296;6.600;2023-02-22T02:42:24;101722.19;;;8.10;94.80
51986;BME280;38002;53.296;6.600;2023-02-22T02:47:35;101711.47;;;8.08;95.44
51986;BME280;38002;53.296;6.600;2023-02-22T02:52:38;101707.78;;;8.09;94.67
51986;BME280;38002;53.296;6.600;2023-02-22T02:57:40;101708.88;;;8.07;95.50
51986;BME280;38002;53.296;6.600;2023-02-22T03:13:39;101686.22;;;8.08;94.81
51986;BME280;38002;53.296;6.600;2023-02-22T03:19:44;101682.41;;;8.10;94.62
51986;BME280;38002;53.296;6.600;2023-02-22T03:24:47;101679.56;;;8.12;95.29
51986;BME280;38002;53.296;6.600;2023-02-22T03:29:57;101668.72;;;8.12;94.84
51986;BME280;38002;53.296;6.600;2023-02-22T03:35:12;101668.59;;;8.13;95.01
51986;BME280;38002;53.296;6.600;2023-02-22T03:40:17;101655.78;;;8.15;94.63
51986;BME280;38002;53.296;6.600;2023-02-22T03:45:27;101651.22;;;8.16;94.81
51986;BME280;38002;53.296;6.600;2023-02-22T03:50:33;101654.81;;;8.16;95.19
51986;BME280;38002;53.296;6.600;2023-02-22T03:55:35;101655.06;;;8.13;94.54
51986;BME280;38002;53.296;6.600;2023-02-22T04:00:35;101647.31;;;8.09;95.31
51986;BME280;38002;53.296;6.600;2023-02-22T04:05:36;101651.97;;;8.07;95.38
51986;BME280;38002;53.296;6.600;2023-02-22T04:10:36;101635.88;;;8.05;94.98
51986;BME280;38002;53.296;6.600;2023-02-22T04:15:37;101637.13;;;8.01;95.21
51986;BME280;38002;53.296;6.600;2023-02-22T04:20:37;101632.56;;;8.02;95.42
51986;BME280;38002;53.296;6.600;2023-02-22T04:25:38;101624.44;;;8.02;95.12
51986;BME280;38002;53.296;6.600;2023-02-22T04:30:38;101627.75;;;8.05;95.26
51986;BME280;38002;53.296;6.600;2023-02-22T04:35:39;101621.47;;;8.05;95.46
51986;BME280;38002;53.296;6.600;2023-02-22T04:40:39;101617.91;;;8.04;95.70
51986;BME280;38002;53.296;6.600;2023-02-22T04:45:40;101597.84;;;7.96;94.81
51986;BME280;38002;53.296;6.600;2023-02-22T04:50:40;101614.94;;;8.07;94.84
51986;BME280;38002;53.296;6.600;2023-02-22T04:55:41;101609.50;;;8.07;95.40
51986;BME280;38002;53.296;6.600;2023-02-22T05:00:41;101610.66;;;8.05;95.42
51986;BME280;38002;53.296;6.600;2023-02-22T05:05:42;101612.47;;;8.04;95.31
51986;BME280;38002;53.296;6.600;2023-02-22T05:10:42;101601.91;;;8.01;95.43
51986;BME280;38002;53.296;6.600;2023-02-22T05:15:43;101603.28;;;7.96;95.06
51986;BME280;38002;53.296;6.600;2023-02-22T05:20:43;101604.84;;;7.98;95.27
51986;BME280;38002;53.296;6.600;2023-02-22T05:25:44;101600.44;;;7.97;95.55
51986;BME280;38002;53.296;6.600;2023-02-22T05:30:45;101595.16;;;7.96;95.15
51986;BME280;38002;53.296;6.600;2023-02-22T05:35:45;101602.41;;;7.95;95.15
51986;BME280;38002;53.296;6.600;2023-02-22T05:40:46;101597.97;;;7.94;95.38
51986;BME280;38002;53.296;6.600;2023-02-22T05:45:46;101592.72;;;7.93;95.89
51986;BME280;38002;53.296;6.600;2023-02-22T05:50:47;101582.97;;;7.90;96.13
51986;BME280;38002;53.296;6.600;2023-02-22T05:55:49;101570.94;;;7.83;96.75
51986;BME280;38002;53.296;6.600;2023-02-22T06:00:50;101578.19;;;7.83;95.67
51986;BME280;38002;53.296;6.600;2023-02-22T06:05:50;101571.22;;;7.80;95.71
51986;BME280;38002;53.296;6.600;2023-02-22T06:10:51;101569.38;;;7.81;95.92
51986;BME280;38002;53.296;6.600;2023-02-22T06:15:51;101570.94;;;7.83;95.43
51986;BME280;38002;53.296;6.600;2023-02-22T06:20:51;101571.22;;;7.80;96.01
51986;BME280;38002;53.296;6.600;2023-02-22T06:25:52;101573.16;;;7.78;94.89
51986;BME280;38002;53.296;6.600;2023-02-22T06:30:52;101570.84;;;7.73;95.20
51986;BME280;38002;53.296;6.600;2023-02-22T06:35:53;101571.09;;;7.70;94.83
51986;BME280;38002;53.296;6.600;2023-02-22T06:40:54;101559.66;;;7.67;94.83
51986;BME280;38002;53.296;6.600;2023-02-22T06:45:54;101554.47;;;7.64;95.15
51986;BME280;38002;53.296;6.600;2023-02-22T06:50:55;101553.66;;;7.63;95.37
51986;BME280;38002;53.296;6.600;2023-02-22T06:55:55;101551.31;;;7.59;94.56
51986;BME280;38002;53.296;6.600;2023-02-22T07:00:56;101555.00;;;7.58;94.75
51986;BME280;38002;53.296;6.600;2023-02-22T07:05:56;101549.00;;;7.54;94.52
51986;BME280;38002;53.296;6.600;2023-02-22T07:10:57;101552.56;;;7.55;94.00
51986;BME280;38002;53.296;6.600;2023-02-22T07:15:57;101542.56;;;7.55;94.38
51986;BME280;38002;53.296;6.600;2023-02-22T07:20:58;101543.59;;;7.54;93.93
51986;BME280;38002;53.296;6.600;2023-02-22T07:25:59;101546.41;;;7.53;93.57
51986;BME280;38002;53.296;6.600;2023-02-22T07:31:00;101546.41;;;7.53;93.28
51986;BME280;38002;53.296;6.600;2023-02-22T07:36:01;101542.84;;;7.52;93.66
51986;BME280;38002;53.296;6.600;2023-02-22T07:41:01;101537.53;;;7.51;93.06
51986;BME280;38002;53.296;6.600;2023-02-22T07:46:02;101541.25;;;7.50;93.20
51986;BME280;38002;53.296;6.600;2023-02-22T07:51:03;101531.53;;;7.47;93.16
51986;BME280;38002;53.296;6.600;2023-02-22T07:56:04;101541.25;;;7.50;93.58
51986;BME280;38002;53.296;6.600;2023-02-22T08:01:05;101528.44;;;7.52;93.26
51986;BME280;38002;53.296;6.600;2023-02-22T08:06:06;101523.03;;;7.52;92.76
51986;BME280;38002;53.296;6.600;2023-02-22T08:11:07;101520.19;;;7.53;92.77
51986;BME280;38002;53.296;6.600;2023-02-22T08:16:07;101517.22;;;7.56;93.82
51986;BME280;38002;53.296;6.600;2023-02-22T08:21:08;101511.44;;;7.61;93.24
51986;BME280;38002;53.296;6.600;2023-02-22T08:26:10;101499.09;;;7.68;93.33
51986;BME280;38002;53.296;6.600;2023-02-22T08:31:14;101503.63;;;7.79;93.36
51986;BME280;38002;53.296;6.600;2023-02-22T08:36:15;101509.91;;;7.79;92.90
51986;BME280;38002;53.296;6.600;2023-02-22T08:41:15;101509.16;;;7.88;93.30
51986;BME280;38002;53.296;6.600;2023-02-22T08:46:16;101513.44;;;7.91;92.96
51986;BME280;38002;53.296;6.600;2023-02-22T08:51:17;101509.63;;;7.93;92.69
51986;BME280;38002;53.296;6.600;2023-02-22T08:56:18;101507.50;;;7.97;91.56
51986;BME280;38002;53.296;6.600;2023-02-22T09:01:18;101504.66;;;7.98;91.86
51986;BME280;38002;53.296;6.600;2023-02-22T09:06:21;101507.13;;;8.01;91.93
51986;BME280;38002;53.296;6.600;2023-02-22T09:11:22;101500.47;;;8.05;91.77
51986;BME280;38002;53.296;6.600;2023-02-22T09:16:22;101494.66;;;8.10;91.44
51986;BME280;38002;53.296;6.600;2023-02-22T09:21:23;101492.81;;;8.10;91.54
51986;BME280;38002;53.296;6.600;2023-02-22T09:26:23;101489.09;;;8.11;90.84
51986;BME280;38002;53.296;6.600;2023-02-22T09:31:24;101496.09;;;8.14;91.63
51986;BME280;38002;53.296;6.600;2023-02-22T09:36:24;101484.88;;;8.18;91.06
51986;BME280;38002;53.296;6.600;2023-02-22T09:41:27;101484.59;;;8.21;91.84
51986;BME280;38002;53.296;6.600;2023-02-22T09:46:34;101482.50;;;8.25;91.52
51986;BME280;38002;53.296;6.600;2023-02-22T09:56:52;101478.31;;;8.21;90.94
51986;BME280;38002;53.296;6.600;2023-02-22T10:01:59;101460.22;;;8.21;91.48
51986;BME280;38002;53.296;6.600;2023-02-22T10:07:33;101469.81;;;8.26;91.45
51986;BME280;38002;53.296;6.600;2023-02-22T10:12:45;101471.16;;;8.31;91.45
51986;BME280;38002;53.296;6.600;2023-02-22T10:23:46;101466.47;;;8.33;91.17
51986;BME280;38002;53.296;6.600;2023-02-22T10:28:55;101471.00;;;8.33;91.47
51986;BME280;38002;53.296;6.600;2023-02-22T10:34:03;101459.34;;;8.32;90.83
51986;BME280;38002;53.296;6.600;2023-02-22T10:44:15;101467.25;;;8.45;90.99
51986;BME280;38002;53.296;6.600;2023-02-22T10:49:20;101461.84;;;8.45;90.81
51986;BME280;38002;53.296;6.600;2023-02-22T10:54:27;101460.19;;;8.53;91.20
51986;BME280;38002;53.296;6.600;2023-02-22T10:59:35;101452.81;;;8.65;91.10
51986;BME280;38002;53.296;6.600;2023-02-22T11:04:48;101438.00;;;8.69;90.54
51986;BME280;38002;53.296;6.600;2023-02-22T11:10:02;101439.44;;;8.73;90.10
51986;BME280;38002;53.296;6.600;2023-02-22T11:20:22;101431.56;;;9.00;90.03
51986;BME280;38002;53.296;6.600;2023-02-22T11:25:28;101414.72;;;9.16;90.81
51986;BME280;38002;53.296;6.600;2023-02-22T11:30:32;101410.34;;;9.34;90.07
51986;BME280;38002;53.296;6.600;2023-02-22T11:35:38;101402.66;;;9.49;90.49
51986;BME280;38002;53.296;6.600;2023-02-22T11:40:39;101394.94;;;9.64;90.61
51986;BME280;38002;53.296;6.600;2023-02-22T11:45:55;101406.09;;;9.70;89.05
51986;BME280;38002;53.296;6.600;2023-02-22T11:51:08;101395.38;;;9.78;88.95
51986;BME280;38002;53.296;6.600;2023-02-22T12:01:22;101383.91;;;9.84;89.65
51986;BME280;38002;53.296;6.600;2023-02-22T12:12:02;101367.47;;;9.67;88.84
51986;BME280;38002;53.296;6.600;2023-02-22T12:17:12;101361.91;;;9.68;89.81
51986;BME280;38002;53.296;6.600;2023-02-22T12:22:23;101356.91;;;9.73;89.75
51986;BME280;38002;53.296;6.600;2023-02-22T12:27:45;101355.78;;;9.66;89.21
51986;BME280;38002;53.296;6.600;2023-02-22T12:32:54;101344.63;;;9.69;89.48
51986;BME280;38002;53.296;6.600;2023-02-22T12:38:21;101345.31;;;9.71;89.06
51986;BME280;38002;53.296;6.600;2023-02-22T12:43:27;101356.91;;;9.73;89.55
51986;BME280;38002;53.296;6.600;2023-02-22T12:53:58;101358.31;;;9.96;89.91
51986;BME280;38002;53.296;6.600;2023-02-22T12:59:13;101359.69;;;10.10;87.61
51986;BME280;38002;53.296;6.600;2023-02-22T13:04:16;101373.28;;;10.10;88.57
51986;BME280;38002;53.296;6.600;2023-02-22T13:19:51;101353.66;;;10.35;86.49
51986;BME280;38002;53.296;6.600;2023-02-22T13:25:03;101356.69;;;10.23;87.85
51986;BME280;38002;53.296;6.600;2023-02-22T13:30:14;101347.44;;;10.16;89.21
51986;BME280;38002;53.296;6.600;2023-02-22T13:35:31;101330.81;;;10.19;88.73
51986;BME280;38002;53.296;6.600;2023-02-22T13:51:41;101336.28;;;10.09;89.47
51986;BME280;38002;53.296;6.600;2023-02-22T13:56:45;101320.53;;;10.13;89.21
51986;BME280;38002;53.296;6.600;2023-02-22T14:01:47;101305.34;;;10.10;89.25
51986;BME280;38002;53.296;6.600;2023-02-22T14:06:48;101304.09;;;10.05;88.98
51986;BME280;38002;53.296;6.600;2023-02-22T14:11:48;101301.22;;;10.06;89.48
51986;BME280;38002;53.296;6.600;2023-02-22T14:17:30;101307.81;;;10.03;89.03
51986;BME280;38002;53.296;6.600;2023-02-22T14:22:31;101327.16;;;10.00;89.45
51986;BME280;38002;53.296;6.600;2023-02-22T14:27:39;101338.03;;;9.91;89.24
51986;BME280;38002;53.296;6.600;2023-02-22T14:32:40;101352.91;;;9.87;89.63
51986;BME280;38002;53.296;6.600;2023-02-22T14:37:41;101332.03;;;9.78;89.24
51986;BME280;38002;53.296;6.600;2023-02-22T14:48:27;101330.47;;;9.75;89.06
51986;BME280;38002;53.296;6.600;2023-02-22T14:53:39;101329.91;;;9.72;88.70
51986;BME280;38002;53.296;6.600;2023-02-22T14:58:48;101323.34;;;9.74;89.29
51986;BME280;38002;53.296;6.600;2023-02-22T15:03:50;101322.16;;;9.77;89.26
51986;BME280;38002;53.296;6.600;2023-02-22T15:09:17;101320.75;;;9.73;87.83
51986;BME280;38002;53.296;6.600;2023-02-22T15:14:25;101329.75;;;9.73;88.93
51986;BME280;38002;53.296;6.600;2023-02-22T15:19:35;101316.31;;;9.81;89.49
51986;BME280;38002;53.296;6.600;2023-02-22T15:24:36;101333.47;;;9.82;89.36
51986;BME280;38002;53.296;6.600;2023-02-22T15:29:42;101325.03;;;9.75;89.33
51986;BME280;38002;53.296;6.600;2023-02-22T15:34:46;101322.91;;;9.69;89.06
51986;BME280;38002;53.296;6.600;2023-02-22T15:39:47;101319.47;;;9.67;89.29
51986;BME280;38002;53.296;6.600;2023-02-22T15:44:50;101320.50;;;9.66;88.76
51986;BME280;38002;53.296;6.600;2023-02-22T15:55:16;101317.63;;;9.58;89.05
51986;BME280;38002;53.296;6.600;2023-02-22T16:00:24;101315.63;;;9.50;89.62
51986;BME280;38002;53.296;6.600;2023-02-22T16:05:38;101311.50;;;9.46;88.86
51986;BME280;38002;53.296;6.600;2023-02-22T16:10:40;101317.91;;;9.45;89.75
51986;BME280;38002;53.296;6.600;2023-02-22T16:21:24;101337.78;;;9.36;89.83
51986;BME280;38002;53.296;6.600;2023-02-22T16:26:32;101340.50;;;9.27;89.62
51986;BME280;38002;53.296;6.600;2023-02-22T16:31:38;101350.06;;;9.21;90.01
51986;BME280;38002;53.296;6.600;2023-02-22T16:36:41;101349.78;;;9.15;89.90
51986;BME280;38002;53.296;6.600;2023-02-22T16:41:42;101342.63;;;9.14;90.25
51986;BME280;38002;53.296;6.600;2023-02-22T16:46:43;101345.78;;;9.09;90.32
51986;BME280;38002;53.296;6.600;2023-02-22T16:51:50;101345.31;;;9.04;90.25
51986;BME280;38002;53.296;6.600;2023-02-22T16:56:54;101349.59;;;8.97;89.88
51986;BME280;38002;53.296;6.600;2023-02-22T17:01:55;101351.72;;;8.93;89.64
51986;BME280;38002;53.296;6.600;2023-02-22T17:06:57;101355.28;;;8.84;89.88
51986;BME280;38002;53.296;6.600;2023-02-22T17:11:58;101356.53;;;8.80;90.35
51986;BME280;38002;53.296;6.600;2023-02-22T17:16:59;101373.38;;;8.74;90.23
51986;BME280;38002;53.296;6.600;2023-02-22T17:21:59;101366.50;;;8.70;90.65
51986;BME280;38002;53.296;6.600;2023-02-22T17:27:05;101364.22;;;8.65;90.08
51986;BME280;38002;53.296;6.600;2023-02-22T17:32:05;101366.47;;;8.60;90.20
51986;BME280;38002;53.296;6.600;2023-02-22T17:37:06;101365.91;;;8.57;90.43
51986;BME280;38002;53.296;6.600;2023-02-22T17:42:06;101368.16;;;8.52;90.45
51986;BME280;38002;53.296;6.600;2023-02-22T17:47:07;101375.69;;;8.48;90.13
51986;BME280;38002;53.296;6.600;2023-02-22T17:52:08;101388.66;;;8.45;90.31
51986;BME280;38002;53.296;6.600;2023-02-22T17:57:08;101398.66;;;8.44;90.45
51986;BME280;38002;53.296;6.600;2023-02-22T18:02:09;101393.50;;;8.41;89.94
51986;BME280;38002;53.296;6.600;2023-02-22T18:07:09;101386.50;;;8.39;91.01
51986;BME280;38002;53.296;6.600;2023-02-22T18:12:12;101393.19;;;8.35;89.94
51986;BME280;38002;53.296;6.600;2023-02-22T18:17:12;101397.16;;;8.31;90.49
51986;BME280;38002;53.296;6.600;2023-02-22T18:22:13;101402.19;;;8.24;90.41
51986;BME280;38002;53.296;6.600;2023-02-22T18:27:13;101410.47;;;8.23;90.54
51986;BME280;38002;53.296;6.600;2023-02-22T18:32:14;101405.47;;;8.18;91.25
51986;BME280;38002;53.296;6.600;2023-02-22T18:37:14;101414.56;;;8.17;90.79
51986;BME280;38002;53.296;6.600;2023-02-22T18:42:20;101406.72;;;8.14;91.21
51986;BME280;38002;53.296;6.600;2023-02-22T18:47:22;101403.53;;;8.09;91.42
51986;BME280;38002;53.296;6.600;2023-02-22T18:52:23;101404.69;;;8.06;91.27
51986;BME280;38002;53.296;6.600;2023-02-22T18:57:23;101405.19;;;8.00;90.73
51986;BME280;38002;53.296;6.600;2023-02-22T19:02:24;101399.91;;;7.99;91.12
51986;BME280;38002;53.296;6.600;2023-02-22T19:07:25;101404.47;;;7.98;90.76
51986;BME280;38002;53.296;6.600;2023-02-22T19:12:26;101399.19;;;7.97;91.08
51986;BME280;38002;53.296;6.600;2023-02-22T19:17:27;101400.06;;;7.97;90.77
51986;BME280;38002;53.296;6.600;2023-02-22T19:22:28;101401.75;;;7.98;91.27
51986;BME280;38002;53.296;6.600;2023-02-22T19:27:31;101396.34;;;7.98;91.23
51986;BME280;38002;53.296;6.600;2023-02-22T19:32:33;101397.19;;;7.99;90.70
51986;BME280;38002;53.296;6.600;2023-02-22T19:37:35;101398.06;;;7.99;91.14
51986;BME280;38002;53.296;6.600;2023-02-22T19:42:35;101399.03;;;7.98;91.05
51986;BME280;38002;53.296;6.600;2023-02-22T19:47:36;101393.63;;;7.98;91.33
51986;BME280;38002;53.296;6.600;2023-02-22T19:52:37;101398.91;;;8.00;91.50
51986;BME280;38002;53.296;6.600;2023-02-22T19:57:43;101387.09;;;8.01;90.97
51986;BME280;38002;53.296;6.600;2023-02-22T20:02:55;101396.94;;;8.02;91.99
51986;BME280;38002;53.296;6.600;2023-02-22T20:08:05;101392.53;;;8.01;91.39
51986;BME280;38002;53.296;6.600;2023-02-22T20:13:05;101385.25;;;8.01;91.99
51986;BME280;38002;53.296;6.600;2023-02-22T20:18:06;101395.22;;;8.01;91.47
51986;BME280;38002;53.296;6.600;2023-02-22T20:23:06;101395.34;;;7.99;92.34
51986;BME280;38002;53.296;6.600;2023-02-22T20:28:08;101400.06;;;7.97;91.92
51986;BME280;38002;53.296;6.600;2023-02-22T20:33:09;101409.16;;;7.96;92.29
51986;BME280;38002;53.296;6.600;2023-02-22T20:38:13;101412.00;;;7.95;91.97
51986;BME280;38002;53.296;6.600;2023-02-22T20:43:13;101406.84;;;7.92;91.83
51986;BME280;38002;53.296;6.600;2023-02-22T20:48:14;101414.38;;;7.88;91.66
51986;BME280;38002;53.296;6.600;2023-02-22T20:53:14;101414.50;;;7.87;92.00
51986;BME280;38002;53.296;6.600;2023-02-22T20:58:15;101410.22;;;7.84;92.25
51986;BME280;38002;53.296;6.600;2023-02-22T21:03:17;101400.38;;;7.83;92.25
51986;BME280;38002;53.296;6.600;2023-02-22T21:08:17;101415.63;;;7.84;91.80
51986;BME280;38002;53.296;6.600;2023-02-22T21:13:18;101403.19;;;7.82;92.17
51986;BME280;38002;53.296;6.600;2023-02-22T21:18:19;101400.06;;;7.77;92.49
51986;BME280;38002;53.296;6.600;2023-02-22T21:23:20;101403.59;;;7.77;92.47
51986;BME280;38002;53.296;6.600;2023-02-22T21:28:20;101413.81;;;7.73;92.39
51986;BME280;38002;53.296;6.600;2023-02-22T21:33:21;101410.66;;;7.68;92.58
51986;BME280;38002;53.296;6.600;2023-02-22T21:38:22;101429.34;;;7.71;92.62
51986;BME280;38002;53.296;6.600;2023-02-22T21:43:23;101430.47;;;7.69;91.93
51986;BME280;38002;53.296;6.600;2023-02-22T21:48:24;101419.44;;;7.61;92.62
51986;BME280;38002;53.296;6.600;2023-02-22T21:53:25;101427.44;;;7.62;92.15
51986;BME280;38002;53.296;6.600;2023-02-22T21:58:27;101426.84;;;7.59;92.86
51986;BME280;38002;53.296;6.600;2023-02-22T22:03:30;101423.75;;;7.52;92.35
51986;BME280;38002;53.296;6.600;2023-02-22T22:08:30;101426.59;;;7.51;92.96
51986;BME280;38002;53.296;6.600;2023-02-22T22:13:31;101435.13;;;7.46;92.44
51986;BME280;38002;53.296;6.600;2023-02-22T22:18:31;101437.94;;;7.45;92.35
51986;BME280;38002;53.296;6.600;2023-02-22T22:23:32;101442.50;;;7.44;92.31
51986;BME280;38002;53.296;6.600;2023-02-22T22:28:32;101442.59;;;7.43;92.61
51986;BME280;38002;53.296;6.600;2023-02-22T22:33:33;101439.19;;;7.41;92.54
51986;BME280;38002;53.296;6.600;2023-02-22T22:38:35;101451.00;;;7.40;92.75
51986;BME280;38002;53.296;6.600;2023-02-22T22:43:40;101445.69;;;7.38;92.94
51986;BME280;38002;53.296;6.600;2023-02-22T22:48:41;101447.94;;;7.33;92.83
51986;BME280;38002;53.296;6.600;2023-02-22T22:53:44;101442.38;;;7.35;92.89
51986;BME280;38002;53.296;6.600;2023-02-22T22:58:49;101449.91;;;7.31;93.76
51986;BME280;38002;53.296;6.600;2023-02-22T23:03:52;101451.47;;;7.34;92.64
51986;BME280;38002;53.296;6.600;2023-02-22T23:08:58;101465.16;;;7.32;92.59
51986;BME280;38002;53.296;6.600;2023-02-22T23:14:13;101462.56;;;7.30;92.90
51986;BME280;38002;53.296;6.600;2023-02-22T23:19:14;101468.34;;;7.26;92.54
51986;BME280;38002;53.296;6.600;2023-02-22T23:24:18;101468.34;;;7.26;92.68
51986;BME280;38002;53.296;6.600;2023-02-22T23:29:21;101468.34;;;7.26;92.35
51986;BME280;38002;53.296;6.600;2023-02-22T23:34:22;101479.53;;;7.21;93.43
51986;BME280;38002;53.296;6.600;2023-02-22T23:39:23;101470.72;;;7.19;92.97
51986;BME280;38002;53.296;6.600;2023-02-22T23:44:24;101473.66;;;7.16;92.65
51986;BME280;38002;53.296;6.600;2023-02-22T23:49:27;101479.19;;;7.15;93.03
51986;BME280;38002;53.296;6.600;2023-02-22T23:54:35;101481.03;;;7.14;92.71
51986;BME280;38002;53.296;6.600;2023-02-22T23:59:39;101483.75;;;7.14;93.14
